Time;durP1;ratioP1;P1;durP2;ratioP2;P2;SDS_P1;SDS_P2;PMS_P1;PMS_P2;Temp;Humidity;BMP_temperature;BMP_pressure;BME280_temperature;BME280_humidity;BME280_pressure;Samples;Min_cycle;Max_cycle;Signal;HPM_P1;HPM_P2
2021/04/09 00:02:23;;;;;;;;;;;;;;;;;;5086882;28;1101;-59
2021/04/09 00:04:48;;;;;;;;;;;;;;;;;;5087618;28;1149;-59
2021/04/09 00:07:14;;;;;;;;;;;;;;;;;;5089010;28;1890;-64
2021/04/09 00:09:40;;;;;;;;;;;;;;;;;;5089103;28;838;-64
2021/04/09 00:12:05;;;;;;;;;;;;;;;;;;5088220;28;933;-64
2021/04/09 00:14:31;;;;;;;;;;;;;;;;;;5088232;28;815;-63
2021/04/09 00:16:56;;;;;;;;;;;;;;;;;;5089698;28;904;-64
2021/04/09 00:19:23;;;;;;;;;;;;;;;;;;5088234;28;827;-64
2021/04/09 00:21:48;;;;;;;;;;;;;;;;;;5088547;28;831;-64
2021/04/09 00:24:14;;;;;;;;;;;;;;;;;;5088440;28;990;-64
2021/04/09 00:26:40;;;;;;;;;;;;;;;;;;5089024;28;1959;-64
2021/04/09 00:29:05;;;;;;;;;;;;;;;;;;5088860;28;830;-61
2021/04/09 00:31:31;;;;;;;;;;;;;;;;;;5088223;28;823;-63
2021/04/09 00:33:56;;;;;;;;;;;;;;;;;;5089359;28;854;-63
2021/04/09 00:36:22;;;;;;;;;;;;;;;;;;5088397;28;906;-64
2021/04/09 00:38:47;;;;;;;;;;;;;;;;;;5088130;28;958;-63
2021/04/09 00:41:13;;;;;;;;;;;;;;;;;;5088389;28;897;-63
2021/04/09 00:43:39;;;;;;;;;;;;;;;;;;5088354;28;826;-63
2021/04/09 00:46:04;;;;;;;;;;;;;;;;;;5087986;28;1889;-63
2021/04/09 00:48:32;;;;;;;;;;;;;;;;;;5088533;28;846;-66
2021/04/09 00:51:00;;;;;;;;;;;;;;;;;;5089537;28;831;-63
2021/04/09 00:53:33;;;;;;;;;;;;;;;;;;5083194;28;1161;-64
2021/04/09 00:56:05;;;;;;;;;;;;;;;;;;5068688;28;949;-64
2021/04/09 00:58:30;;;;;;;;;;;;;;;;;;5068497;28;910;-64
2021/04/09 01:00:59;;;;;;;;;;;;;;;;;;5068497;28;903;-64
2021/04/09 01:03:25;;;;;;;;;;;;;;;;;;5053890;28;796;-64
2021/04/09 01:05:51;;;;;;;;;;;;;;;;;;5047347;28;1972;-63
2021/04/09 01:08:17;;;;;;;;;;;;;;;;;;5046914;28;874;-64
2021/04/09 01:10:42;;;;;;;;;;;;;;;;;;5047829;28;886;-63
2021/04/09 01:13:07;;;;;;;;;;;;;;;;;;5047519;28;867;-64
2021/04/09 01:15:33;;;;;;;;;;;;;;;;;;5048183;28;922;-65
2021/04/09 01:18:03;;;;;;;;;;;;;;;;;;5048341;28;819;-64
2021/04/09 01:20:37;;;;;;;;;;;;;;;;;;5030417;28;828;-63
2021/04/09 01:23:21;;;;;;;;;;;;;;;;;;5047890;28;887;-65
2021/04/09 01:26:05;;;;;;;;;;;;;;;;;;5047722;28;1979;-64
2021/04/09 01:28:30;;;;;;;;;;;;;;;;;;5030149;28;888;-62
2021/04/09 01:30:59;;;;;;;;;;;;;;;;;;5048614;28;942;-64
2021/04/09 01:33:28;;;;;;;;;;;;;;;;;;5048204;28;894;-64
2021/04/09 01:35:55;;;;;;;;;;;;;;;;;;5072482;28;1203;-65
2021/04/09 01:38:23;;;;;;;;;;;;;;;;;;5087480;28;830;-64
2021/04/09 01:40:49;;;;;;;;;;;;;;;;;;5087813;28;918;-64
2021/04/09 01:43:16;;;;;;;;;;;;;;;;;;5087438;28;846;-64
2021/04/09 01:45:42;;;;;;;;;;;;;;;;;;5087348;28;1922;-64
2021/04/09 01:48:08;;;;;;;;;;;;;;;;;;5087647;28;921;-62
2021/04/09 01:50:35;;;;;;;;;;;;;;;;;;5087700;28;819;-64
2021/04/09 01:53:01;;;;;;;;;;;;;;;;;;5087997;28;1074;-62
2021/04/09 01:55:28;;;;;;;;;;;;;;;;;;5088319;28;871;-62
2021/04/09 01:57:54;;;;;;;;;;;;;;;;;;5087801;28;926;-64
2021/04/09 02:00:22;;;;;;;;;;;;;;;;;;5087368;28;958;-64
2021/04/09 02:02:48;;;;;;;;;;;;;;;;;;5087633;28;913;-64
2021/04/09 02:05:15;;;;;;;;;;;;;;;;;;5087485;28;1909;-64
2021/04/09 02:07:41;;;;;;;;;;;;;;;;;;5087279;28;815;-63
2021/04/09 02:10:07;;;;;;;;;;;;;;;;;;5087275;28;838;-65
2021/04/09 02:12:34;;;;;;;;;;;;;;;;;;5086971;28;1034;-63
2021/04/09 02:15:00;;;;;;;;;;;;;;;;;;5085527;28;1205;-63
2021/04/09 02:17:25;;;;;;;;;;;;;;;;;;5086912;28;877;-64
2021/04/09 02:19:51;;;;;;;;;;;;;;;;;;5072695;28;1481;-64
2021/04/09 02:22:17;;;;;;;;;;;;;;;;;;5091866;28;826;-64
2021/04/09 02:24:42;;;;;;;;;;;;;;;;;;5090862;28;1033;-65
2021/04/09 02:27:08;;;;;;;;;;;;;;;;;;5091005;28;1890;-64
2021/04/09 02:29:34;;;;;;;;;;;;;;;;;;5091191;28;867;-64
2021/04/09 02:32:00;;;;;;;;;;;;;;;;;;5091947;28;838;-64
2021/04/09 02:34:26;;;;;;;;;;;;;;;;;;5090700;28;886;-64
2021/04/09 02:36:51;;;;;;;;;;;;;;;;;;5090295;28;866;-63
2021/04/09 02:39:19;;;;;;;;;;;;;;;;;;5090888;28;914;-64
2021/04/09 02:41:50;;;;;;;;;;;;;;;;;;5090802;28;831;-64
2021/04/09 02:44:15;;;;;;;;;;;;;;;;;;5079086;28;879;-64
2021/04/09 02:46:53;;;;;;;;;;;;;;;;;;5111252;28;1909;-64
2021/04/09 02:49:21;;;;;;;;;;;;;;;;;;5111050;28;842;-64
2021/04/09 02:51:48;;;;;;;;;;;;;;;;;;5111076;28;874;-65
2021/04/09 02:54:15;;;;;;;;;;;;;;;;;;5098771;28;1153;-62
2021/04/09 02:56:42;;;;;;;;;;;;;;;;;;5091070;28;823;-65
2021/04/09 02:59:12;;;;;;;;;;;;;;;;;;5090626;28;842;-64
2021/04/09 03:01:39;;;;;;;;;;;;;;;;;;5090301;28;1013;-63
2021/04/09 03:04:05;;;;;;;;;;;;;;;;;;5090569;28;886;-64
2021/04/09 03:06:31;;;;;;;;;;;;;;;;;;5088645;28;1894;-64
2021/04/09 03:08:56;;;;;;;;;;;;;;;;;;5090593;28;875;-62
2021/04/09 03:11:22;;;;;;;;;;;;;;;;;;5089043;28;1182;-59
2021/04/09 03:13:48;;;;;;;;;;;;;;;;;;5090470;28;886;-59
2021/04/09 03:16:16;;;;;;;;;;;;;;;;;;5090146;28;929;-59
2021/04/09 03:18:42;;;;;;;;;;;;;;;;;;5089799;28;907;-63
2021/04/09 03:21:08;;;;;;;;;;;;;;;;;;5090480;28;874;-63
2021/04/09 03:23:33;;;;;;;;;;;;;;;;;;5090159;28;860;-62
2021/04/09 03:25:58;;;;;;;;;;;;;;;;;;5089979;28;1898;-64
2021/04/09 03:28:24;;;;;;;;;;;;;;;;;;5089427;28;843;-64
2021/04/09 03:30:49;;;;;;;;;;;;;;;;;;5088935;28;862;-63
2021/04/09 03:33:19;;;;;;;;;;;;;;;;;;5089634;28;819;-64
2021/04/09 03:35:44;;;;;;;;;;;;;;;;;;5089866;28;811;-64
2021/04/09 03:38:10;;;;;;;;;;;;;;;;;;5090016;28;851;-64
2021/04/09 03:40:36;;;;;;;;;;;;;;;;;;5089078;28;850;-63
2021/04/09 03:43:01;;;;;;;;;;;;;;;;;;5089745;28;815;-62
2021/04/09 03:45:26;;;;;;;;;;;;;;;;;;5090844;28;1970;-63
2021/04/09 03:47:52;;;;;;;;;;;;;;;;;;5089687;28;851;-64
2021/04/09 03:50:17;;;;;;;;;;;;;;;;;;5089139;28;950;-64
2021/04/09 03:52:43;;;;;;;;;;;;;;;;;;5089201;28;823;-64
2021/04/09 03:55:09;;;;;;;;;;;;;;;;;;5108586;28;1210;-64
2021/04/09 03:57:34;;;;;;;;;;;;;;;;;;5109244;28;898;-63
2021/04/09 04:00:00;;;;;;;;;;;;;;;;;;5110364;28;905;-64
2021/04/09 04:02:25;;;;;;;;;;;;;;;;;;5109910;27;912;-64
2021/04/09 04:04:50;;;;;;;;;;;;;;;;;;5109429;27;964;-63
2021/04/09 04:07:16;;;;;;;;;;;;;;;;;;5108837;28;1958;-64
2021/04/09 04:09:41;;;;;;;;;;;;;;;;;;5108661;28;1024;-63
2021/04/09 04:12:07;;;;;;;;;;;;;;;;;;5108697;28;920;-62
2021/04/09 04:14:32;;;;;;;;;;;;;;;;;;5108973;28;822;-64
2021/04/09 04:16:57;;;;;;;;;;;;;;;;;;5106683;28;1092;-64
2021/04/09 04:19:23;;;;;;;;;;;;;;;;;;5109276;28;838;-64
2021/04/09 04:21:50;;;;;;;;;;;;;;;;;;5108893;28;826;-64
2021/04/09 04:24:15;;;;;;;;;;;;;;;;;;5108119;28;905;-64
2021/04/09 04:26:40;;;;;;;;;;;;;;;;;;5108761;28;1960;-62
2021/04/09 04:29:06;;;;;;;;;;;;;;;;;;5108764;28;870;-62
2021/04/09 04:31:31;;;;;;;;;;;;;;;;;;5109303;28;802;-62
2021/04/09 04:33:57;;;;;;;;;;;;;;;;;;5109863;28;834;-63
2021/04/09 04:36:22;;;;;;;;;;;;;;;;;;5109478;28;964;-64
2021/04/09 04:38:48;;;;;;;;;;;;;;;;;;5108489;28;822;-64
2021/04/09 04:41:15;;;;;;;;;;;;;;;;;;5108776;28;905;-63
2021/04/09 04:43:40;;;;;;;;;;;;;;;;;;5109222;28;925;-63
2021/04/09 04:46:05;;;;;;;;;;;;;;;;;;5108624;28;1901;-62
2021/04/09 04:48:31;;;;;;;;;;;;;;;;;;5108427;28;838;-64
2021/04/09 04:50:56;;;;;;;;;;;;;;;;;;5109214;28;830;-62
2021/04/09 04:53:21;;;;;;;;;;;;;;;;;;5102813;28;1160;-64
2021/04/09 04:55:47;;;;;;;;;;;;;;;;;;5088214;28;890;-63
2021/04/09 04:58:12;;;;;;;;;;;;;;;;;;5087870;28;838;-62
2021/04/09 05:00:37;;;;;;;;;;;;;;;;;;5088373;28;827;-64
2021/04/09 05:03:03;;;;;;;;;;;;;;;;;;5087944;28;831;-62
2021/04/09 05:05:28;;;;;;;;;;;;;;;;;;5088625;28;1897;-63
2021/04/09 05:07:53;;;;;;;;;;;;;;;;;;5087453;28;701;-63
2021/04/09 05:10:19;;;;;;;;;;;;;;;;;;5087980;28;850;-62
2021/04/09 05:12:44;;;;;;;;;;;;;;;;;;5087757;28;886;-63
2021/04/09 05:15:10;;;;;;;;;;;;;;;;;;5087914;28;882;-63
2021/04/09 05:17:36;;;;;;;;;;;;;;;;;;5088324;28;921;-63
2021/04/09 05:20:02;;;;;;;;;;;;;;;;;;5088347;28;894;-63
2021/04/09 05:22:28;;;;;;;;;;;;;;;;;;5088289;28;851;-64
2021/04/09 05:24:53;;;;;;;;;;;;;;;;;;5088391;28;696;-61
2021/04/09 05:27:18;;;;;;;;;;;;;;;;;;5088394;28;1990;-62
2021/04/09 05:29:44;;;;;;;;;;;;;;;;;;5088070;28;1064;-62
2021/04/09 05:32:12;;;;;;;;;;;;;;;;;;5088055;28;834;-60
2021/04/09 05:34:38;;;;;;;;;;;;;;;;;;5088617;28;837;-62
2021/04/09 05:37:03;;;;;;;;;;;;;;;;;;5087351;28;878;-62
2021/04/09 05:39:29;;;;;;;;;;;;;;;;;;5086510;28;1634;-61
2021/04/09 05:41:54;;;;;;;;;;;;;;;;;;5086154;28;1555;-61
2021/04/09 05:44:20;;;;;;;;;;;;;;;;;;5068510;28;948;-59
2021/04/09 05:46:45;;;;;;;;;;;;;;;;;;5067235;28;1972;-60
2021/04/09 05:49:11;;;;;;;;;;;;;;;;;;5067500;28;812;-63
2021/04/09 05:51:37;;;;;;;;;;;;;;;;;;5067121;28;882;-61
2021/04/09 05:54:02;;;;;;;;;;;;;;;;;;5088355;28;959;-63
2021/04/09 05:56:28;;;;;;;;;;;;;;;;;;5108632;28;1867;-60
2021/04/09 05:58:54;;;;;;;;;;;;;;;;;;5108018;28;818;-62
2021/04/09 06:01:19;;;;;;;;;;;;;;;;;;5107528;28;858;-59
2021/04/09 06:03:46;;;;;;;;;;;;;;;;;;5107714;28;894;-60
2021/04/09 06:06:12;;;;;;;;;;;;;;;;;;5107416;28;1866;-60
2021/04/09 06:08:37;;;;;;;;;;;;;;;;;;5107926;28;881;-60
2021/04/09 06:11:02;;;;;;;;;;;;;;;;;;5107665;28;933;-63
2021/04/09 06:13:29;;;;;;;;;;;;;;;;;;5108336;28;850;-59
2021/04/09 06:15:55;;;;;;;;;;;;;;;;;;5104143;28;1049;-61
2021/04/09 06:18:20;;;;;;;;;;;;;;;;;;5099165;28;1221;-59
2021/04/09 06:20:46;;;;;;;;;;;;;;;;;;5072281;28;1080;-61
2021/04/09 06:23:11;;;;;;;;;;;;;;;;;;5066649;28;835;-59
2021/04/09 06:25:36;;;;;;;;;;;;;;;;;;5066324;28;1889;-58
2021/04/09 06:28:02;;;;;;;;;;;;;;;;;;5067112;28;839;-61
2021/04/09 06:30:27;;;;;;;;;;;;;;;;;;5066474;28;843;-61
2021/04/09 06:32:53;;;;;;;;;;;;;;;;;;5066221;28;950;-63
2021/04/09 06:35:18;;;;;;;;;;;;;;;;;;5065301;28;824;-63
2021/04/09 06:37:44;;;;;;;;;;;;;;;;;;5086609;28;1223;-62
2021/04/09 06:40:12;;;;;;;;;;;;;;;;;;5088403;28;1246;-63
2021/04/09 06:42:37;;;;;;;;;;;;;;;;;;5086975;28;1299;-63
2021/04/09 06:45:04;;;;;;;;;;;;;;;;;;5086717;28;1331;-64
2021/04/09 06:47:31;;;;;;;;;;;;;;;;;;5088261;28;1918;-64
2021/04/09 06:49:56;;;;;;;;;;;;;;;;;;5085630;28;1136;-59
2021/04/09 06:52:22;;;;;;;;;;;;;;;;;;5085562;28;1350;-63
2021/04/09 06:54:47;;;;;;;;;;;;;;;;;;5103023;28;1066;-64
2021/04/09 06:57:13;;;;;;;;;;;;;;;;;;5107433;28;740;-63
2021/04/09 06:59:42;;;;;;;;;;;;;;;;;;5107094;28;846;-64
2021/04/09 07:02:11;;;;;;;;;;;;;;;;;;5102006;28;1169;-64
2021/04/09 07:04:37;;;;;;;;;;;;;;;;;;5093035;28;1154;-64
2021/04/09 07:07:09;;;;;;;;;;;;;;;;;;5071087;28;1918;-63
2021/04/09 07:09:34;;;;;;;;;;;;;;;;;;5078302;28;1163;-63
2021/04/09 07:12:00;;;;;;;;;;;;;;;;;;5090877;28;1201;-63
2021/04/09 07:14:44;;;;;;;;;;;;;;;;;;5090766;28;854;-64
2021/04/09 07:17:09;;;;;;;;;;;;;;;;;;5086740;28;1135;-62
2021/04/09 07:19:35;;;;;;;;;;;;;;;;;;5088197;28;815;-62
2021/04/09 07:22:04;;;;;;;;;;;;;;;;;;5071290;28;800;-63
2021/04/09 07:24:30;;;;;;;;;;;;;;;;;;5070741;28;911;-60
2021/04/09 07:26:56;;;;;;;;;;;;;;;;;;5069306;28;1961;-59
2021/04/09 07:29:30;;;;;;;;;;;;;;;;;;5069694;28;880;-59
2021/04/09 07:31:58;;;;;;;;;;;;;;;;;;5069408;28;823;-62
2021/04/09 07:34:24;;;;;;;;;;;;;;;;;;5083854;28;1652;-59
2021/04/09 07:36:53;;;;;;;;;;;;;;;;;;5079669;28;1645;-61
2021/04/09 07:39:30;;;;;;;;;;;;;;;;;;5089036;28;1356;-63
2021/04/09 07:42:06;;;;;;;;;;;;;;;;;;5089235;28;1162;-61
2021/04/09 07:44:31;;;;;;;;;;;;;;;;;;5070461;28;1678;-62
2021/04/09 07:47:09;;;;;;;;;;;;;;;;;;5085797;28;1985;-63
2021/04/09 07:49:35;;;;;;;;;;;;;;;;;;5088823;28;1177;-64
2021/04/09 07:52:10;;;;;;;;;;;;;;;;;;5088194;28;1820;-64
2021/04/09 07:54:36;;;;;;;;;;;;;;;;;;5104875;28;1129;-63
2021/04/09 07:57:02;;;;;;;;;;;;;;;;;;5110552;28;878;-63
2021/04/09 07:59:41;;;;;;;;;;;;;;;;;;5110629;27;865;-62
2021/04/09 08:02:08;;;;;;;;;;;;;;;;;;5090149;28;1455;-63
2021/04/09 08:04:40;;;;;;;;;;;;;;;;;;5089800;28;910;-63
2021/04/09 08:07:06;;;;;;;;;;;;;;;;;;5089349;28;1982;-63
2021/04/09 08:09:47;;;;;;;;;;;;;;;;;;5075249;28;1720;-62
2021/04/09 08:12:32;;;;;;;;;;;;;;;;;;5068933;28;918;-63
2021/04/09 08:15:15;;;;;;;;;;;;;;;;;;5069451;28;969;-63
2021/04/09 08:17:41;;;;;;;;;;;;;;;;;;5079165;28;1215;-62
2021/04/09 08:20:14;;;;;;;;;;;;;;;;;;5088846;28;831;-62
2021/04/09 08:22:40;;;;;;;;;;;;;;;;;;5088563;28;862;-61
2021/04/09 08:25:07;;;;;;;;;;;;;;;;;;5088897;28;866;-62
2021/04/09 08:27:34;;;;;;;;;;;;;;;;;;5089004;28;1969;-62
2021/04/09 08:30:00;;;;;;;;;;;;;;;;;;5090186;28;874;-62
2021/04/09 08:32:25;;;;;;;;;;;;;;;;;;5088804;28;819;-63
2021/04/09 08:34:51;;;;;;;;;;;;;;;;;;5088936;28;814;-63
2021/04/09 08:37:16;;;;;;;;;;;;;;;;;;5089081;28;901;-63
2021/04/09 08:39:42;;;;;;;;;;;;;;;;;;5088488;28;909;-63
2021/04/09 08:42:07;;;;;;;;;;;;;;;;;;5079427;28;1523;-62
2021/04/09 08:44:33;;;;;;;;;;;;;;;;;;5084498;28;1091;-61
2021/04/09 08:46:59;;;;;;;;;;;;;;;;;;5073200;28;1989;-64
2021/04/09 08:49:26;;;;;;;;;;;;;;;;;;5087027;28;1059;-62
2021/04/09 08:51:52;;;;;;;;;;;;;;;;;;5088157;28;882;-63
2021/04/09 08:54:21;;;;;;;;;;;;;;;;;;5080370;28;1260;-63
2021/04/09 08:56:46;;;;;;;;;;;;;;;;;;5082071;28;1055;-63
2021/04/09 08:59:12;;;;;;;;;;;;;;;;;;5088309;28;1182;-60
2021/04/09 09:01:38;;;;;;;;;;;;;;;;;;5088445;28;1174;-61
2021/04/09 09:04:21;;;;;;;;;;;;;;;;;;5088304;28;1182;-64
2021/04/09 09:06:49;;;;;;;;;;;;;;;;;;5079981;28;1889;-63
2021/04/09 09:09:26;;;;;;;;;;;;;;;;;;5083899;28;1973;-63
2021/04/09 09:11:52;;;;;;;;;;;;;;;;;;5086215;28;1067;-63
2021/04/09 09:14:33;;;;;;;;;;;;;;;;;;5087416;28;1226;-62
2021/04/09 09:17:21;;;;;;;;;;;;;;;;;;5086100;28;1315;-64
2021/04/09 09:19:47;;;;;;;;;;;;;;;;;;5079325;28;2432;-63
2021/04/09 09:22:16;;;;;;;;;;;;;;;;;;5080969;28;894;-61
2021/04/09 09:25:03;;;;;;;;;;;;;;;;;;5078327;28;887;-62
2021/04/09 09:27:44;;;;;;;;;;;;;;;;;;5088413;28;1893;-60
2021/04/09 09:30:32;;;;;;;;;;;;;;;;;;5087524;28;815;-59
2021/04/09 09:33:15;;;;;;;;;;;;;;;;;;5083483;28;1462;-60
2021/04/09 09:35:53;;;;;;;;;;;;;;;;;;5087573;28;1147;-60
2021/04/09 09:38:37;;;;;;;;;;;;;;;;;;5074321;28;1143;-61
2021/04/09 09:41:03;;;;;;;;;;;;;;;;;;5066727;28;889;-65
2021/04/09 09:43:32;;;;;;;;;;;;;;;;;;5085472;28;1393;-63
2021/04/09 09:45:57;;;;;;;;;;;;;;;;;;5086943;28;1961;-62
2021/04/09 09:48:23;;;;;;;;;;;;;;;;;;5086348;28;1210;-62
2021/04/09 09:50:49;;;;;;;;;;;;;;;;;;5086394;28;1083;-63
2021/04/09 09:53:14;;;;;;;;;;;;;;;;;;5090103;28;1150;-63
2021/04/09 09:55:41;;;;;;;;;;;;;;;;;;5088428;28;1241;-59
2021/04/09 09:58:11;;;;;;;;;;;;;;;;;;5089163;28;1384;-63
2021/04/09 10:00:39;;;;;;;;;;;;;;;;;;5088920;28;1106;-61
2021/04/09 10:03:11;;;;;;;;;;;;;;;;;;5085091;28;1183;-63
2021/04/09 10:05:37;;;;;;;;;;;;;;;;;;5102167;28;2057;-63
2021/04/09 10:08:03;;;;;;;;;;;;;;;;;;5089276;28;1159;-63
2021/04/09 10:10:41;;;;;;;;;;;;;;;;;;5093819;28;1168;-62
2021/04/09 10:13:16;;;;;;;;;;;;;;;;;;5105924;28;1093;-63
2021/04/09 10:15:41;;;;;;;;;;;;;;;;;;5107018;28;1275;-62
2021/04/09 10:18:07;;;;;;;;;;;;;;;;;;5105807;28;1208;-63
2021/04/09 10:20:33;;;;;;;;;;;;;;;;;;5107351;28;882;-61
2021/04/09 10:22:58;;;;;;;;;;;;;;;;;;5107342;28;909;-63
2021/04/09 10:25:27;;;;;;;;;;;;;;;;;;5105064;28;1162;-63
2021/04/09 10:27:53;;;;;;;;;;;;;;;;;;5085739;28;1885;-62
2021/04/09 10:30:24;;;;;;;;;;;;;;;;;;5085959;28;1143;-63
2021/04/09 10:32:53;;;;;;;;;;;;;;;;;;5086246;28;1083;-62
2021/04/09 10:35:25;;;;;;;;;;;;;;;;;;5086346;28;1143;-62
2021/04/09 10:37:51;;;;;;;;;;;;;;;;;;5085819;28;1206;-61
2021/04/09 10:40:17;;;;;;;;;;;;;;;;;;5089201;28;1245;-63
2021/04/09 10:42:42;;;;;;;;;;;;;;;;;;5090880;28;1694;-63
2021/04/09 10:45:20;;;;;;;;;;;;;;;;;;5090304;28;958;-62
2021/04/09 10:47:45;;;;;;;;;;;;;;;;;;5090299;28;1894;-63
2021/04/09 10:50:11;;;;;;;;;;;;;;;;;;5090696;28;831;-60
2021/04/09 10:52:37;;;;;;;;;;;;;;;;;;5089661;28;1131;-62
2021/04/09 10:55:03;;;;;;;;;;;;;;;;;;5109839;28;1069;-62
2021/04/09 10:57:33;;;;;;;;;;;;;;;;;;5111535;28;886;-63
2021/04/09 11:00:01;;;;;;;;;;;;;;;;;;5098355;28;1601;-62
2021/04/09 11:02:26;;;;;;;;;;;;;;;;;;5089883;28;1060;-61
2021/04/09 11:04:53;;;;;;;;;;;;;;;;;;5082997;28;826;-62
2021/04/09 11:07:18;;;;;;;;;;;;;;;;;;5074645;28;2227;-62
2021/04/09 11:09:48;;;;;;;;;;;;;;;;;;5088911;28;1154;-63
2021/04/09 11:12:17;;;;;;;;;;;;;;;;;;5095627;28;1173;-62
2021/04/09 11:14:43;;;;;;;;;;;;;;;;;;5108615;28;1022;-63
2021/04/09 11:17:08;;;;;;;;;;;;;;;;;;5107141;28;1214;-62
2021/04/09 11:19:35;;;;;;;;;;;;;;;;;;5108110;28;1157;-63
2021/04/09 11:22:07;;;;;;;;;;;;;;;;;;5098192;28;1221;-62
2021/04/09 11:24:36;;;;;;;;;;;;;;;;;;5078314;28;1228;-64
2021/04/09 11:27:03;;;;;;;;;;;;;;;;;;5091348;28;1885;-62
2021/04/09 11:29:33;;;;;;;;;;;;;;;;;;5090551;28;822;-63
2021/04/09 11:32:05;;;;;;;;;;;;;;;;;;5092143;28;1286;-62
2021/04/09 11:34:34;;;;;;;;;;;;;;;;;;5089723;28;827;-62
2021/04/09 11:36:59;;;;;;;;;;;;;;;;;;5089873;28;831;-63
2021/04/09 11:39:24;;;;;;;;;;;;;;;;;;5089471;28;807;-63
2021/04/09 11:41:57;;;;;;;;;;;;;;;;;;5089425;28;897;-63
2021/04/09 11:44:25;;;;;;;;;;;;;;;;;;5068858;28;911;-63
2021/04/09 11:46:52;;;;;;;;;;;;;;;;;;5068163;28;1913;-62
2021/04/09 11:49:17;;;;;;;;;;;;;;;;;;5068607;28;995;-63
2021/04/09 11:51:42;;;;;;;;;;;;;;;;;;5068788;28;894;-61
2021/04/09 11:54:17;;;;;;;;;;;;;;;;;;5091667;28;1153;-62
2021/04/09 11:56:43;;;;;;;;;;;;;;;;;;5109742;28;947;-62
2021/04/09 11:59:18;;;;;;;;;;;;;;;;;;5109116;28;834;-61
2021/04/09 12:01:45;;;;;;;;;;;;;;;;;;5098838;28;1225;-61
2021/04/09 12:04:29;;;;;;;;;;;;;;;;;;5088138;28;867;-61
2021/04/09 12:06:54;;;;;;;;;;;;;;;;;;5090413;28;1894;-61
2021/04/09 12:09:20;;;;;;;;;;;;;;;;;;5087927;28;925;-61
2021/04/09 12:11:45;;;;;;;;;;;;;;;;;;5088025;28;1355;-61
2021/04/09 12:14:10;;;;;;;;;;;;;;;;;;5089006;28;823;-61
2021/04/09 12:16:36;;;;;;;;;;;;;;;;;;5088214;28;894;-61
2021/04/09 12:19:01;;;;;;;;;;;;;;;;;;5089520;28;893;-61
2021/04/09 12:21:27;;;;;;;;;;;;;;;;;;5089136;28;715;-61
2021/04/09 12:23:52;;;;;;;;;;;;;;;;;;5089032;28;973;-61
2021/04/09 12:26:18;;;;;;;;;;;;;;;;;;5088552;28;1886;-60
2021/04/09 12:28:43;;;;;;;;;;;;;;;;;;5088350;28;1038;-60
2021/04/09 12:31:08;;;;;;;;;;;;;;;;;;5088732;28;826;-60
2021/04/09 12:33:34;;;;;;;;;;;;;;;;;;5088144;28;882;-61
2021/04/09 12:35:59;;;;;;;;;;;;;;;;;;5088957;28;866;-60
2021/04/09 12:38:24;;;;;;;;;;;;;;;;;;5088286;28;826;-60
2021/04/09 12:40:50;;;;;;;;;;;;;;;;;;5087936;28;1350;-61
2021/04/09 12:43:15;;;;;;;;;;;;;;;;;;5088462;28;894;-60
2021/04/09 12:45:40;;;;;;;;;;;;;;;;;;5088385;28;1913;-61
2021/04/09 12:48:06;;;;;;;;;;;;;;;;;;5088836;28;898;-60
2021/04/09 12:50:31;;;;;;;;;;;;;;;;;;5088916;28;831;-60
2021/04/09 12:52:57;;;;;;;;;;;;;;;;;;5089552;28;1034;-61
2021/04/09 12:55:22;;;;;;;;;;;;;;;;;;5108918;28;922;-61
2021/04/09 12:57:47;;;;;;;;;;;;;;;;;;5107936;27;881;-61
2021/04/09 13:00:13;;;;;;;;;;;;;;;;;;5108092;28;862;-62
2021/04/09 13:02:39;;;;;;;;;;;;;;;;;;5106486;28;891;-61
2021/04/09 13:05:04;;;;;;;;;;;;;;;;;;5108414;28;806;-63
2021/04/09 13:07:30;;;;;;;;;;;;;;;;;;5108783;27;1944;-61
2021/04/09 13:09:55;;;;;;;;;;;;;;;;;;5100875;28;1409;-61
2021/04/09 13:12:20;;;;;;;;;;;;;;;;;;5088578;28;891;-61
2021/04/09 13:14:46;;;;;;;;;;;;;;;;;;5087664;28;886;-61
2021/04/09 13:17:11;;;;;;;;;;;;;;;;;;5087850;28;949;-61
2021/04/09 13:19:37;;;;;;;;;;;;;;;;;;5087828;28;948;-61
2021/04/09 13:22:03;;;;;;;;;;;;;;;;;;5088847;28;894;-61
2021/04/09 13:24:31;;;;;;;;;;;;;;;;;;5087093;28;830;-61
2021/04/09 13:26:59;;;;;;;;;;;;;;;;;;5087293;28;2004;-61
2021/04/09 13:29:25;;;;;;;;;;;;;;;;;;5087569;28;894;-62
2021/04/09 13:31:50;;;;;;;;;;;;;;;;;;5086745;28;889;-61
2021/04/09 13:34:16;;;;;;;;;;;;;;;;;;5086510;28;803;-61
2021/04/09 13:36:41;;;;;;;;;;;;;;;;;;5086008;28;918;-62
2021/04/09 13:39:07;;;;;;;;;;;;;;;;;;5085497;28;1453;-62
2021/04/09 13:41:32;;;;;;;;;;;;;;;;;;5086882;28;850;-61
2021/04/09 13:43:58;;;;;;;;;;;;;;;;;;5087061;28;957;-61
2021/04/09 13:46:23;;;;;;;;;;;;;;;;;;5086899;28;2023;-62
2021/04/09 13:48:49;;;;;;;;;;;;;;;;;;5087516;28;855;-62
2021/04/09 13:51:14;;;;;;;;;;;;;;;;;;5087315;28;811;-61
2021/04/09 13:53:40;;;;;;;;;;;;;;;;;;5095043;28;1109;-61
2021/04/09 13:56:06;;;;;;;;;;;;;;;;;;5107754;28;886;-62
2021/04/09 13:58:33;;;;;;;;;;;;;;;;;;5108518;28;898;-61
2021/04/09 14:00:58;;;;;;;;;;;;;;;;;;5108132;28;933;-61
2021/04/09 14:03:23;;;;;;;;;;;;;;;;;;5107540;28;893;-62
2021/04/09 14:05:49;;;;;;;;;;;;;;;;;;5107549;28;1881;-62
2021/04/09 14:08:14;;;;;;;;;;;;;;;;;;5107795;28;838;-62
2021/04/09 14:10:39;;;;;;;;;;;;;;;;;;5091422;28;1374;-61
2021/04/09 14:13:05;;;;;;;;;;;;;;;;;;5087368;28;1022;-62
2021/04/09 14:15:30;;;;;;;;;;;;;;;;;;5094293;28;1220;-61
2021/04/09 14:17:56;;;;;;;;;;;;;;;;;;5090549;28;871;-61
2021/04/09 14:20:22;;;;;;;;;;;;;;;;;;5091166;28;879;-61
2021/04/09 14:22:48;;;;;;;;;;;;;;;;;;5091182;28;834;-61
2021/04/09 14:25:15;;;;;;;;;;;;;;;;;;5091478;28;878;-61
2021/04/09 14:27:41;;;;;;;;;;;;;;;;;;5091183;28;1968;-61
2021/04/09 14:30:08;;;;;;;;;;;;;;;;;;5091212;28;815;-61
2021/04/09 14:32:33;;;;;;;;;;;;;;;;;;5091524;28;899;-63
2021/04/09 14:34:59;;;;;;;;;;;;;;;;;;5091800;28;1330;-61
2021/04/09 14:37:24;;;;;;;;;;;;;;;;;;5090912;28;882;-61
2021/04/09 14:39:50;;;;;;;;;;;;;;;;;;5090354;28;1359;-60
2021/04/09 14:42:15;;;;;;;;;;;;;;;;;;5091241;28;962;-61
2021/04/09 14:44:40;;;;;;;;;;;;;;;;;;5090588;28;911;-61
2021/04/09 14:47:06;;;;;;;;;;;;;;;;;;5090484;28;1906;-61
2021/04/09 14:49:31;;;;;;;;;;;;;;;;;;5091961;28;879;-61
2021/04/09 14:51:57;;;;;;;;;;;;;;;;;;5090521;28;992;-61
2021/04/09 14:54:22;;;;;;;;;;;;;;;;;;5103832;28;1295;-61
2021/04/09 14:56:47;;;;;;;;;;;;;;;;;;5110847;28;675;-61
2021/04/09 14:59:13;;;;;;;;;;;;;;;;;;5111136;28;917;-60
2021/04/09 15:01:38;;;;;;;;;;;;;;;;;;5079103;28;1729;-60
2021/04/09 15:04:04;;;;;;;;;;;;;;;;;;5079136;28;1743;-60
2021/04/09 15:06:30;;;;;;;;;;;;;;;;;;5080019;28;1894;-59
2021/04/09 15:08:56;;;;;;;;;;;;;;;;;;5080906;28;1777;-59
2021/04/09 15:11:22;;;;;;;;;;;;;;;;;;5090149;28;792;-59
2021/04/09 15:13:47;;;;;;;;;;;;;;;;;;5089694;28;1630;-60
2021/04/09 15:16:12;;;;;;;;;;;;;;;;;;5090242;28;755;-60
2021/04/09 15:18:38;;;;;;;;;;;;;;;;;;5090219;28;822;-60
2021/04/09 15:21:03;;;;;;;;;;;;;;;;;;5084325;28;1847;-60
2021/04/09 15:23:29;;;;;;;;;;;;;;;;;;5076360;28;1018;-60
2021/04/09 15:25:57;;;;;;;;;;;;;;;;;;5082259;28;2075;-60
2021/04/09 15:28:23;;;;;;;;;;;;;;;;;;5069473;28;858;-59
2021/04/09 15:30:54;;;;;;;;;;;;;;;;;;5083271;28;1143;-60
2021/04/09 15:33:20;;;;;;;;;;;;;;;;;;5087941;28;824;-60
2021/04/09 15:35:46;;;;;;;;;;;;;;;;;;5087808;28;1233;-60
2021/04/09 15:38:11;;;;;;;;;;;;;;;;;;5084907;28;1548;-60
2021/04/09 15:40:37;;;;;;;;;;;;;;;;;;5089135;28;1184;-60
2021/04/09 15:43:03;;;;;;;;;;;;;;;;;;5089358;28;1144;-60
2021/04/09 15:45:29;;;;;;;;;;;;;;;;;;5088465;28;1303;-59
2021/04/09 15:47:54;;;;;;;;;;;;;;;;;;5088413;28;1905;-59
2021/04/09 15:50:20;;;;;;;;;;;;;;;;;;5085945;28;1216;-60
2021/04/09 15:52:46;;;;;;;;;;;;;;;;;;5088550;28;1062;-60
2021/04/09 15:55:11;;;;;;;;;;;;;;;;;;5088128;28;1139;-59
2021/04/09 15:57:37;;;;;;;;;;;;;;;;;;5088080;28;1272;-60
2021/04/09 16:00:03;;;;;;;;;;;;;;;;;;5089098;28;1315;-60
2021/04/09 16:02:30;;;;;;;;;;;;;;;;;;5101324;28;1350;-60
2021/04/09 16:04:55;;;;;;;;;;;;;;;;;;5097960;28;1244;-60
2021/04/09 16:07:20;;;;;;;;;;;;;;;;;;5088384;28;1893;-60
2021/04/09 16:09:46;;;;;;;;;;;;;;;;;;5088770;28;1194;-60
2021/04/09 16:12:11;;;;;;;;;;;;;;;;;;5097547;28;1388;-60
2021/04/09 16:14:37;;;;;;;;;;;;;;;;;;5093895;28;1114;-61
2021/04/09 16:17:02;;;;;;;;;;;;;;;;;;5108475;28;1176;-61
2021/04/09 16:19:27;;;;;;;;;;;;;;;;;;5088590;28;1229;-60
2021/04/09 16:21:53;;;;;;;;;;;;;;;;;;5089801;28;1184;-61
2021/04/09 16:24:18;;;;;;;;;;;;;;;;;;5090133;28;1173;-61
2021/04/09 16:26:43;;;;;;;;;;;;;;;;;;5108567;28;1960;-60
2021/04/09 16:29:09;;;;;;;;;;;;;;;;;;5094886;28;1171;-60
2021/04/09 16:31:38;;;;;;;;;;;;;;;;;;5088149;28;1123;-61
2021/04/09 16:34:04;;;;;;;;;;;;;;;;;;5088168;28;1267;-60
2021/04/09 16:36:29;;;;;;;;;;;;;;;;;;5103218;28;1176;-61
2021/04/09 16:38:55;;;;;;;;;;;;;;;;;;5100946;28;1169;-60
2021/04/09 16:41:21;;;;;;;;;;;;;;;;;;5087991;28;1238;-60
2021/04/09 16:43:47;;;;;;;;;;;;;;;;;;5090042;28;1185;-61
2021/04/09 16:46:12;;;;;;;;;;;;;;;;;;5088406;28;1955;-61
2021/04/09 16:48:37;;;;;;;;;;;;;;;;;;5087744;28;842;-61
2021/04/09 16:51:03;;;;;;;;;;;;;;;;;;5088492;28;831;-61
2021/04/09 16:53:28;;;;;;;;;;;;;;;;;;5087865;28;1085;-61
2021/04/09 16:55:54;;;;;;;;;;;;;;;;;;5088636;28;879;-60
2021/04/09 16:58:19;;;;;;;;;;;;;;;;;;5075423;28;1548;-61
2021/04/09 17:00:45;;;;;;;;;;;;;;;;;;5067459;28;914;-61
2021/04/09 17:03:10;;;;;;;;;;;;;;;;;;5067988;28;863;-61
2021/04/09 17:05:36;;;;;;;;;;;;;;;;;;5067640;28;806;-61
2021/04/09 17:08:01;;;;;;;;;;;;;;;;;;5068023;28;1897;-60
2021/04/09 17:10:29;;;;;;;;;;;;;;;;;;5062057;28;1835;-60
2021/04/09 17:12:54;;;;;;;;;;;;;;;;;;5065811;28;1564;-60